aviador You're here:

KESN Decoded Metar

EASTON/NEWNAM in MD, USA
Report Time2018-06-23 05:49:00
UTC Time2018-06-23 05:59:58
Flight Rules ifr IFR
Wind110° at 08 kt
W.Decomp.*RWY 15: 6.9 kt HW 4 kt LCW
RWY 04: 1.4 kt HW 7.9 kt RCW
W.Rank110° ranks 35
Current wind is above 110° avg. (5.4)
Visibility6437 m
Phenomena:Mist
Clouds:Overcast 005 Hf
Expected CloudBase > 400 ft AGL from Temp-Dew spread
Ceiling500 ft
Temp20°C (ISA +5)
Dew Point19°C (94% RH)
QNH1012 hPa
Density Alt997 ft
Elevation72 ft
Report Wrong Elevation
Raw Report
KESN 230549Z AUTO 11008KT 4SM BR OVC005 20/19 A2988 RMK AO2
T02030191=

Extra information for KESN:More info

Metar Taf Metar & Taf Last 4 Metars F.Rules Stats Wind Profile Meteogram Temp Stats Airport Information Weather charts Add Link Nearby VenuesMetar ALERT Operation Metar Decoded Social comments

AIRNAV info for KESN